TimeCST,TemperatureF,Dew PointF,Humidity,Sea Level PressureIn,VisibilityMPH,Wind Direction,Wind SpeedMPH,Gust SpeedMPH,PrecipitationIn,Events,Conditions,WindDirDegrees,DateUTC
12:15 AM,37.4,33.8,87,30.17,6.0,Calm,Calm,-,N/A,,Overcast,0,2013-01-03 06:15:00
12:35 AM,37.4,33.8,87,30.17,6.0,Calm,Calm,-,N/A,,Overcast,0,2013-01-03 06:35:00
12:55 AM,37.4,33.8,87,30.18,5.0,NW,4.6,-,N/A,,Overcast,320,2013-01-03 06:55:00
1:15 AM,37.4,33.8,87,30.19,5.0,NW,5.8,-,N/A,,Overcast,320,2013-01-03 07:15:00
1:35 AM,37.4,33.8,87,30.18,5.0,Calm,Calm,-,N/A,,Overcast,0,2013-01-03 07:35:00
1:55 AM,37.4,33.8,87,30.20,5.0,NW,6.9,-,N/A,,Overcast,310,2013-01-03 07:55:00
2:15 AM,37.4,33.8,87,30.21,5.0,NW,5.8,-,N/A,,Overcast,310,2013-01-03 08:15:00
2:35 AM,37.4,33.8,87,30.21,5.0,WNW,5.8,-,N/A,,Overcast,300,2013-01-03 08:35:00
2:55 AM,37.4,33.8,87,30.21,5.0,WNW,4.6,-,N/A,,Overcast,300,2013-01-03 08:55:00
3:15 AM,37.4,33.8,87,30.21,5.0,WNW,4.6,-,N/A,,Overcast,300,2013-01-03 09:15:00
3:35 AM,37.4,33.8,87,30.21,5.0,Calm,Calm,-,N/A,,Overcast,0,2013-01-03 09:35:00
3:55 AM,37.4,33.8,87,30.21,5.0,WNW,5.8,-,N/A,,Overcast,290,2013-01-03 09:55:00
4:15 AM,35.6,32.0,87,30.21,6.0,NW,4.6,-,N/A,,Overcast,310,2013-01-03 10:15:00
4:35 AM,35.6,32.0,87,30.22,7.0,NNW,5.8,-,N/A,,Overcast,330,2013-01-03 10:35:00
4:55 AM,35.6,32.0,87,30.22,6.0,NNW,6.9,-,N/A,,Overcast,340,2013-01-03 10:55:00
5:15 AM,35.6,32.0,87,30.22,6.0,NW,4.6,-,N/A,,Overcast,320,2013-01-03 11:15:00
5:35 AM,35.6,32.0,87,30.23,6.0,NNW,5.8,-,N/A,,Overcast,330,2013-01-03 11:35:00
5:55 AM,35.6,30.2,81,30.22,8.0,NNW,5.8,-,N/A,,Overcast,330,2013-01-03 11:55:00
6:15 AM,35.6,30.2,81,30.23,8.0,NW,6.9,-,N/A,,Overcast,320,2013-01-03 12:15:00
6:35 AM,35.6,30.2,81,30.23,8.0,NW,5.8,-,N/A,,Overcast,320,2013-01-03 12:35:00
6:55 AM,35.6,30.2,81,30.24,7.0,NNW,6.9,-,N/A,,Overcast,330,2013-01-03 12:55:00
7:15 AM,35.6,30.2,81,30.25,6.0,NW,4.6,-,N/A,,Overcast,320,2013-01-03 13:15:00
7:35 AM,35.6,30.2,81,30.25,6.0,NW,4.6,-,N/A,,Overcast,310,2013-01-03 13:35:00
7:55 AM,35.6,30.2,81,30.25,6.0,NW,5.8,-,N/A,,Overcast,310,2013-01-03 13:55:00
8:15 AM,35.6,30.2,81,30.26,7.0,NW,8.1,-,N/A,,Overcast,310,2013-01-03 14:15:00
8:36 AM,35.6,30.2,81,30.26,8.0,NW,6.9,-,N/A,,Overcast,320,2013-01-03 14:36:00
8:55 AM,35.6,30.2,81,30.27,9.0,NNW,5.8,-,N/A,,Overcast,340,2013-01-03 14:55:00
9:15 AM,37.4,28.4,70,30.28,10.0,North,6.9,-,N/A,,Mostly Cloudy,10,2013-01-03 15:15:00
9:35 AM,37.4,30.2,75,30.29,10.0,North,10.4,-,N/A,,Scattered Clouds,350,2013-01-03 15:35:00
9:55 AM,37.4,28.4,70,30.29,10.0,North,6.9,-,N/A,,Partly Cloudy,360,2013-01-03 15:55:00
10:15 AM,37.4,28.4,70,30.30,10.0,North,8.1,-,N/A,,Scattered Clouds,10,2013-01-03 16:15:00
10:35 AM,37.4,28.4,70,30.29,10.0,North,6.9,-,N/A,,Mostly Cloudy,350,2013-01-03 16:35:00
10:55 AM,37.4,28.4,70,30.29,10.0,North,8.1,-,N/A,,Scattered Clouds,360,2013-01-03 16:55:00
11:15 AM,39.2,28.4,65,30.28,10.0,NNW,6.9,-,N/A,,Partly Cloudy,340,2013-01-03 17:15:00
11:35 AM,39.2,28.4,65,30.27,10.0,NW,3.5,-,N/A,,Partly Cloudy,320,2013-01-03 17:35:00
11:55 AM,39.2,28.4,65,30.27,10.0,North,5.8,-,N/A,,Clear,10,2013-01-03 17:55:00
12:15 PM,41.0,28.4,61,30.26,10.0,NNW,6.9,-,N/A,,Clear,340,2013-01-03 18:15:00
12:35 PM,41.0,28.4,61,30.26,10.0,NNE,4.6,-,N/A,,Clear,20,2013-01-03 18:35:00
12:55 PM,42.8,28.4,57,30.25,10.0,NW,6.9,-,N/A,,Clear,320,2013-01-03 18:55:00
1:15 PM,42.8,28.4,57,30.26,10.0,NW,5.8,-,N/A,,Clear,320,2013-01-03 19:15:00
1:35 PM,42.8,30.2,61,30.26,10.0,West,6.9,-,N/A,,Clear,280,2013-01-03 19:35:00
1:55 PM,42.8,30.2,61,30.27,10.0,WNW,6.9,-,N/A,,Clear,300,2013-01-03 19:55:00
2:35 PM,44.6,28.4,53,30.28,10.0,North,8.1,-,N/A,,Clear,10,2013-01-03 20:35:00
2:55 PM,44.6,28.4,53,30.28,10.0,NW,9.2,-,N/A,,Clear,310,2013-01-03 20:55:00
3:15 PM,44.6,28.4,53,30.29,10.0,North,6.9,-,N/A,,Clear,350,2013-01-03 21:15:00
3:35 PM,44.6,28.4,53,30.29,10.0,NW,6.9,-,N/A,,Clear,320,2013-01-03 21:35:00
3:55 PM,42.8,28.4,57,30.30,10.0,NNW,6.9,-,N/A,,Clear,330,2013-01-03 21:55:00
4:15 PM,42.8,28.4,57,30.30,10.0,NNW,6.9,-,N/A,,Clear,330,2013-01-03 22:15:00
4:36 PM,41.0,26.6,57,30.30,10.0,NW,4.6,-,N/A,,Clear,310,2013-01-03 22:36:00
4:55 PM,39.2,28.4,65,30.30,10.0,NW,6.9,-,N/A,,Clear,320,2013-01-03 22:55:00
5:15 PM,39.2,26.6,61,30.31,10.0,NNW,5.8,-,N/A,,Clear,330,2013-01-03 23:15:00
5:35 PM,37.4,26.6,65,30.31,10.0,NNW,3.5,-,N/A,,Clear,330,2013-01-03 23:35:00
5:55 PM,37.4,26.6,65,30.32,10.0,NNW,3.5,-,N/A,,Clear,330,2013-01-03 23:55:00
6:15 PM,37.4,26.6,65,30.32,10.0,NNW,4.6,-,N/A,,Clear,340,2013-01-04 00:15:00
6:35 PM,35.6,26.6,70,30.32,10.0,NNW,5.8,-,N/A,,Clear,340,2013-01-04 00:35:00
6:55 PM,33.8,26.6,75,30.32,10.0,NNW,6.9,-,N/A,,Clear,340,2013-01-04 00:55:00
7:15 PM,37.4,24.8,60,30.33,10.0,NNW,6.9,-,N/A,,Clear,330,2013-01-04 01:15:00
7:35 PM,35.6,24.8,65,30.33,10.0,Calm,Calm,-,N/A,,Clear,0,2013-01-04 01:35:00
7:56 PM,30.2,26.6,86,30.35,10.0,Calm,Calm,-,N/A,,Clear,0,2013-01-04 01:56:00
8:15 PM,28.4,26.6,93,30.36,10.0,Calm,Calm,-,N/A,,Clear,0,2013-01-04 02:15:00
8:35 PM,30.2,24.8,80,30.36,10.0,Calm,Calm,-,N/A,,Clear,0,2013-01-04 02:35:00
8:55 PM,30.2,24.8,80,30.37,10.0,Calm,Calm,-,N/A,,Clear,0,2013-01-04 02:55:00
9:15 PM,30.2,24.8,80,30.37,10.0,Calm,Calm,-,N/A,,Clear,0,2013-01-04 03:15:00
9:35 PM,30.2,24.8,80,30.38,10.0,NNW,3.5,-,N/A,,Clear,340,2013-01-04 03:35:00
9:55 PM,28.4,24.8,86,30.38,10.0,Calm,Calm,-,N/A,,Clear,0,2013-01-04 03:55:00
10:15 PM,28.4,24.8,86,30.38,10.0,Calm,Calm,-,N/A,,Clear,0,2013-01-04 04:15:00
10:35 PM,28.4,24.8,86,30.37,10.0,Calm,Calm,-,N/A,,Clear,0,2013-01-04 04:35:00
10:55 PM,28.4,24.8,86,30.38,10.0,NNE,4.6,-,N/A,,Clear,20,2013-01-04 04:55:00
11:15 PM,28.4,24.8,86,30.37,10.0,North,5.8,-,N/A,,Clear,10,2013-01-04 05:15:00
11:35 PM,28.4,24.8,86,30.37,10.0,North,5.8,-,N/A,,Clear,360,2013-01-04 05:35:00
11:55 PM,28.4,23.0,80,30.36,10.0,Calm,Calm,-,N/A,,Clear,0,2013-01-04 05:55:00